sensor_id;sensor_type;location;lat;lon;timestamp;P1;durP1;ratioP1;P2;durP2;ratioP2
27744;SDS011;61387;48.112;8.616;2023-02-16T00:00:17;28.13;;;15.90;;
27744;SDS011;61387;48.112;8.616;2023-02-16T00:02:44;26.83;;;13.90;;
27744;SDS011;61387;48.112;8.616;2023-02-16T00:05:21;25.63;;;12.73;;
27744;SDS011;61387;48.112;8.616;2023-02-16T00:07:55;30.37;;;15.43;;
27744;SDS011;61387;48.112;8.616;2023-02-16T00:10:21;23.47;;;12.80;;
27744;SDS011;61387;48.112;8.616;2023-02-16T00:12:47;26.17;;;13.00;;
27744;SDS011;61387;48.112;8.616;2023-02-16T00:15:32;26.10;;;12.97;;
27744;SDS011;61387;48.112;8.616;2023-02-16T00:17:58;24.43;;;12.83;;
27744;SDS011;61387;48.112;8.616;2023-02-16T00:20:26;25.80;;;12.47;;
27744;SDS011;61387;48.112;8.616;2023-02-16T00:22:54;23.73;;;13.37;;
27744;SDS011;61387;48.112;8.616;2023-02-16T00:25:19;22.43;;;12.97;;
27744;SDS011;61387;48.112;8.616;2023-02-16T00:27:45;22.77;;;12.87;;
27744;SDS011;61387;48.112;8.616;2023-02-16T00:30:15;24.03;;;13.27;;
27744;SDS011;61387;48.112;8.616;2023-02-16T00:32:43;22.40;;;12.00;;
27744;SDS011;61387;48.112;8.616;2023-02-16T00:35:16;21.87;;;11.70;;
27744;SDS011;61387;48.112;8.616;2023-02-16T00:37:43;21.30;;;11.43;;
27744;SDS011;61387;48.112;8.616;2023-02-16T00:40:09;22.70;;;12.53;;
27744;SDS011;61387;48.112;8.616;2023-02-16T00:42:36;24.80;;;13.37;;
27744;SDS011;61387;48.112;8.616;2023-02-16T00:45:02;23.63;;;11.73;;
27744;SDS011;61387;48.112;8.616;2023-02-16T00:47:29;22.67;;;12.00;;
27744;SDS011;61387;48.112;8.616;2023-02-16T00:52:47;24.17;;;11.10;;
27744;SDS011;61387;48.112;8.616;2023-02-16T00:55:14;19.63;;;11.80;;
27744;SDS011;61387;48.112;8.616;2023-02-16T00:57:53;25.50;;;12.80;;
27744;SDS011;61387;48.112;8.616;2023-02-16T01:00:42;25.27;;;13.20;;
27744;SDS011;61387;48.112;8.616;2023-02-16T01:03:29;26.77;;;13.17;;
27744;SDS011;61387;48.112;8.616;2023-02-16T01:05:54;21.80;;;11.60;;
27744;SDS011;61387;48.112;8.616;2023-02-16T01:08:38;23.13;;;12.50;;
27744;SDS011;61387;48.112;8.616;2023-02-16T01:11:24;22.03;;;11.73;;
27744;SDS011;61387;48.112;8.616;2023-02-16T01:13:51;22.17;;;12.40;;
27744;SDS011;61387;48.112;8.616;2023-02-16T01:16:18;22.10;;;11.13;;
27744;SDS011;61387;48.112;8.616;2023-02-16T01:19:04;23.07;;;11.93;;
27744;SDS011;61387;48.112;8.616;2023-02-16T01:21:30;21.77;;;11.63;;
27744;SDS011;61387;48.112;8.616;2023-02-16T01:23:56;23.70;;;11.70;;
27744;SDS011;61387;48.112;8.616;2023-02-16T01:26:22;22.17;;;11.90;;
27744;SDS011;61387;48.112;8.616;2023-02-16T01:28:48;23.83;;;12.57;;
27744;SDS011;61387;48.112;8.616;2023-02-16T01:31:14;26.60;;;13.33;;
27744;SDS011;61387;48.112;8.616;2023-02-16T01:33:41;23.30;;;11.77;;
27744;SDS011;61387;48.112;8.616;2023-02-16T01:38:57;22.57;;;11.83;;
27744;SDS011;61387;48.112;8.616;2023-02-16T01:41:39;23.20;;;12.53;;
27744;SDS011;61387;48.112;8.616;2023-02-16T01:44:22;26.20;;;12.63;;
27744;SDS011;61387;48.112;8.616;2023-02-16T01:46:52;27.33;;;13.63;;
27744;SDS011;61387;48.112;8.616;2023-02-16T01:49:22;27.13;;;13.33;;
27744;SDS011;61387;48.112;8.616;2023-02-16T01:51:56;29.50;;;13.67;;
27744;SDS011;61387;48.112;8.616;2023-02-16T01:57:04;22.03;;;12.63;;
27744;SDS011;61387;48.112;8.616;2023-02-16T02:02:06;23.53;;;13.23;;
27744;SDS011;61387;48.112;8.616;2023-02-16T02:04:38;25.70;;;12.90;;
27744;SDS011;61387;48.112;8.616;2023-02-16T02:10:01;22.83;;;12.67;;
27744;SDS011;61387;48.112;8.616;2023-02-16T02:12:31;29.43;;;14.47;;
27744;SDS011;61387;48.112;8.616;2023-02-16T02:15:04;22.80;;;13.00;;
27744;SDS011;61387;48.112;8.616;2023-02-16T02:17:31;22.80;;;12.17;;
27744;SDS011;61387;48.112;8.616;2023-02-16T02:20:00;24.97;;;12.93;;
27744;SDS011;61387;48.112;8.616;2023-02-16T02:22:37;26.17;;;13.93;;
27744;SDS011;61387;48.112;8.616;2023-02-16T02:28:41;27.80;;;14.27;;
27744;SDS011;61387;48.112;8.616;2023-02-16T02:31:23;29.03;;;14.27;;
27744;SDS011;61387;48.112;8.616;2023-02-16T02:34:14;28.57;;;14.80;;
27744;SDS011;61387;48.112;8.616;2023-02-16T02:36:48;29.17;;;15.23;;
27744;SDS011;61387;48.112;8.616;2023-02-16T02:42:28;31.60;;;15.53;;
27744;SDS011;61387;48.112;8.616;2023-02-16T02:45:13;30.40;;;14.90;;
27744;SDS011;61387;48.112;8.616;2023-02-16T02:47:43;35.67;;;16.17;;
27744;SDS011;61387;48.112;8.616;2023-02-16T02:53:04;32.17;;;15.57;;
27744;SDS011;61387;48.112;8.616;2023-02-16T02:55:35;30.43;;;15.73;;
27744;SDS011;61387;48.112;8.616;2023-02-16T02:58:23;30.53;;;14.83;;
27744;SDS011;61387;48.112;8.616;2023-02-16T03:01:10;28.87;;;14.57;;
27744;SDS011;61387;48.112;8.616;2023-02-16T03:03:40;27.03;;;14.07;;
27744;SDS011;61387;48.112;8.616;2023-02-16T03:06:14;30.77;;;13.77;;
27744;SDS011;61387;48.112;8.616;2023-02-16T03:08:46;26.30;;;13.00;;
27744;SDS011;61387;48.112;8.616;2023-02-16T03:11:14;31.33;;;14.33;;
27744;SDS011;61387;48.112;8.616;2023-02-16T03:14:04;26.90;;;13.80;;
27744;SDS011;61387;48.112;8.616;2023-02-16T03:16:38;26.57;;;13.27;;
27744;SDS011;61387;48.112;8.616;2023-02-16T03:19:08;25.90;;;12.83;;
27744;SDS011;61387;48.112;8.616;2023-02-16T03:21:55;26.90;;;14.23;;
27744;SDS011;61387;48.112;8.616;2023-02-16T03:24:40;23.20;;;11.80;;
27744;SDS011;61387;48.112;8.616;2023-02-16T03:27:26;25.90;;;13.13;;
27744;SDS011;61387;48.112;8.616;2023-02-16T03:30:13;27.13;;;13.27;;
27744;SDS011;61387;48.112;8.616;2023-02-16T03:32:40;24.57;;;12.03;;
27744;SDS011;61387;48.112;8.616;2023-02-16T03:35:07;23.87;;;12.50;;
27744;SDS011;61387;48.112;8.616;2023-02-16T03:37:36;23.00;;;11.53;;
27744;SDS011;61387;48.112;8.616;2023-02-16T03:40:02;24.53;;;11.63;;
27744;SDS011;61387;48.112;8.616;2023-02-16T03:42:50;23.37;;;11.97;;
27744;SDS011;61387;48.112;8.616;2023-02-16T03:45:16;28.80;;;14.30;;
27744;SDS011;61387;48.112;8.616;2023-02-16T03:47:43;30.57;;;14.90;;
27744;SDS011;61387;48.112;8.616;2023-02-16T03:50:08;30.98;;;15.43;;
27744;SDS011;61387;48.112;8.616;2023-02-16T03:52:34;27.33;;;13.70;;
27744;SDS011;61387;48.112;8.616;2023-02-16T03:54:59;26.37;;;13.73;;
27744;SDS011;61387;48.112;8.616;2023-02-16T03:57:25;27.07;;;13.60;;
27744;SDS011;61387;48.112;8.616;2023-02-16T03:59:51;28.70;;;15.20;;
27744;SDS011;61387;48.112;8.616;2023-02-16T04:02:18;30.83;;;15.03;;
27744;SDS011;61387;48.112;8.616;2023-02-16T04:04:44;31.77;;;15.87;;
27744;SDS011;61387;48.112;8.616;2023-02-16T04:07:10;33.20;;;15.20;;
27744;SDS011;61387;48.112;8.616;2023-02-16T04:09:36;27.17;;;13.80;;
27744;SDS011;61387;48.112;8.616;2023-02-16T04:12:02;33.33;;;16.77;;
27744;SDS011;61387;48.112;8.616;2023-02-16T04:14:46;35.50;;;16.97;;
27744;SDS011;61387;48.112;8.616;2023-02-16T04:17:12;34.07;;;17.07;;
27744;SDS011;61387;48.112;8.616;2023-02-16T04:19:38;30.97;;;16.50;;
27744;SDS011;61387;48.112;8.616;2023-02-16T04:22:04;33.00;;;15.23;;
27744;SDS011;61387;48.112;8.616;2023-02-16T04:24:30;29.00;;;15.37;;
27744;SDS011;61387;48.112;8.616;2023-02-16T04:26:56;30.77;;;15.87;;
27744;SDS011;61387;48.112;8.616;2023-02-16T04:29:22;28.00;;;14.00;;
27744;SDS011;61387;48.112;8.616;2023-02-16T04:31:48;30.75;;;14.55;;
27744;SDS011;61387;48.112;8.616;2023-02-16T04:34:14;26.70;;;14.10;;
27744;SDS011;61387;48.112;8.616;2023-02-16T04:36:40;26.37;;;13.03;;
27744;SDS011;61387;48.112;8.616;2023-02-16T04:39:06;28.17;;;14.00;;
27744;SDS011;61387;48.112;8.616;2023-02-16T04:41:32;26.80;;;14.73;;
27744;SDS011;61387;48.112;8.616;2023-02-16T04:43:58;26.73;;;13.97;;
27744;SDS011;61387;48.112;8.616;2023-02-16T04:46:24;28.63;;;13.87;;
27744;SDS011;61387;48.112;8.616;2023-02-16T04:48:50;25.83;;;13.00;;
27744;SDS011;61387;48.112;8.616;2023-02-16T04:51:16;27.20;;;14.00;;
27744;SDS011;61387;48.112;8.616;2023-02-16T04:53:42;29.93;;;15.17;;
27744;SDS011;61387;48.112;8.616;2023-02-16T04:56:08;29.40;;;13.93;;
27744;SDS011;61387;48.112;8.616;2023-02-16T04:58:35;28.50;;;13.13;;
27744;SDS011;61387;48.112;8.616;2023-02-16T05:01:01;24.67;;;12.77;;
27744;SDS011;61387;48.112;8.616;2023-02-16T05:03:27;21.57;;;11.03;;
27744;SDS011;61387;48.112;8.616;2023-02-16T05:05:53;21.87;;;11.67;;
27744;SDS011;61387;48.112;8.616;2023-02-16T05:08:19;21.57;;;11.17;;
27744;SDS011;61387;48.112;8.616;2023-02-16T05:10:45;20.00;;;11.63;;
27744;SDS011;61387;48.112;8.616;2023-02-16T05:13:31;22.63;;;12.03;;
27744;SDS011;61387;48.112;8.616;2023-02-16T05:16:15;24.93;;;11.87;;
27744;SDS011;61387;48.112;8.616;2023-02-16T05:18:41;21.37;;;12.00;;
27744;SDS011;61387;48.112;8.616;2023-02-16T05:21:07;26.33;;;12.73;;
27744;SDS011;61387;48.112;8.616;2023-02-16T05:23:51;23.97;;;12.50;;
27744;SDS011;61387;48.112;8.616;2023-02-16T05:26:17;28.93;;;14.27;;
27744;SDS011;61387;48.112;8.616;2023-02-16T05:28:42;30.40;;;17.47;;
27744;SDS011;61387;48.112;8.616;2023-02-16T05:31:08;35.67;;;16.73;;
27744;SDS011;61387;48.112;8.616;2023-02-16T05:33:34;34.47;;;16.30;;
27744;SDS011;61387;48.112;8.616;2023-02-16T05:35:59;33.70;;;17.10;;
27744;SDS011;61387;48.112;8.616;2023-02-16T05:38:25;32.43;;;16.67;;
27744;SDS011;61387;48.112;8.616;2023-02-16T05:40:51;32.30;;;13.73;;
27744;SDS011;61387;48.112;8.616;2023-02-16T05:43:17;28.27;;;14.37;;
27744;SDS011;61387;48.112;8.616;2023-02-16T05:45:43;32.57;;;15.87;;
27744;SDS011;61387;48.112;8.616;2023-02-16T05:48:09;37.73;;;18.23;;
27744;SDS011;61387;48.112;8.616;2023-02-16T05:50:35;34.37;;;17.13;;
27744;SDS011;61387;48.112;8.616;2023-02-16T05:53:01;34.67;;;18.93;;
27744;SDS011;61387;48.112;8.616;2023-02-16T05:55:27;41.13;;;21.20;;
27744;SDS011;61387;48.112;8.616;2023-02-16T05:57:53;31.67;;;15.93;;
27744;SDS011;61387;48.112;8.616;2023-02-16T06:00:19;28.40;;;15.63;;
27744;SDS011;61387;48.112;8.616;2023-02-16T06:02:45;32.13;;;16.23;;
27744;SDS011;61387;48.112;8.616;2023-02-16T06:05:11;25.87;;;14.10;;
27744;SDS011;61387;48.112;8.616;2023-02-16T06:07:37;32.50;;;14.70;;
27744;SDS011;61387;48.112;8.616;2023-02-16T06:10:03;32.63;;;15.27;;
27744;SDS011;61387;48.112;8.616;2023-02-16T06:12:29;26.27;;;13.93;;
27744;SDS011;61387;48.112;8.616;2023-02-16T06:14:56;89.17;;;40.57;;
27744;SDS011;61387;48.112;8.616;2023-02-16T06:17:22;53.90;;;26.40;;
27744;SDS011;61387;48.112;8.616;2023-02-16T06:19:48;28.27;;;14.20;;
27744;SDS011;61387;48.112;8.616;2023-02-16T06:22:14;30.07;;;14.27;;
27744;SDS011;61387;48.112;8.616;2023-02-16T06:24:40;27.13;;;15.47;;
27744;SDS011;61387;48.112;8.616;2023-02-16T06:27:06;27.53;;;14.83;;
27744;SDS011;61387;48.112;8.616;2023-02-16T06:29:32;27.67;;;14.10;;
27744;SDS011;61387;48.112;8.616;2023-02-16T06:31:58;29.97;;;14.43;;
27744;SDS011;61387;48.112;8.616;2023-02-16T06:34:24;27.73;;;13.70;;
27744;SDS011;61387;48.112;8.616;2023-02-16T06:36:50;27.20;;;13.93;;
27744;SDS011;61387;48.112;8.616;2023-02-16T06:39:16;27.87;;;14.50;;
27744;SDS011;61387;48.112;8.616;2023-02-16T06:41:42;28.60;;;14.23;;
27744;SDS011;61387;48.112;8.616;2023-02-16T06:44:09;29.67;;;14.23;;
27744;SDS011;61387;48.112;8.616;2023-02-16T06:46:36;25.60;;;13.20;;
27744;SDS011;61387;48.112;8.616;2023-02-16T06:49:02;27.07;;;13.80;;
27744;SDS011;61387;48.112;8.616;2023-02-16T06:51:28;26.63;;;13.20;;
27744;SDS011;61387;48.112;8.616;2023-02-16T06:53:54;27.33;;;13.20;;
27744;SDS011;61387;48.112;8.616;2023-02-16T06:56:20;26.93;;;13.83;;
27744;SDS011;61387;48.112;8.616;2023-02-16T06:58:46;28.27;;;13.37;;
27744;SDS011;61387;48.112;8.616;2023-02-16T07:01:12;26.05;;;12.85;;
27744;SDS011;61387;48.112;8.616;2023-02-16T07:03:38;26.77;;;13.73;;
27744;SDS011;61387;48.112;8.616;2023-02-16T07:06:04;29.13;;;13.37;;
27744;SDS011;61387;48.112;8.616;2023-02-16T07:08:30;24.27;;;11.20;;
27744;SDS011;61387;48.112;8.616;2023-02-16T07:10:56;27.47;;;13.93;;
27744;SDS011;61387;48.112;8.616;2023-02-16T07:13:22;25.90;;;12.27;;
27744;SDS011;61387;48.112;8.616;2023-02-16T07:15:48;22.57;;;11.80;;
27744;SDS011;61387;48.112;8.616;2023-02-16T07:18:14;24.20;;;11.73;;
27744;SDS011;61387;48.112;8.616;2023-02-16T07:20:40;23.60;;;11.40;;
27744;SDS011;61387;48.112;8.616;2023-02-16T07:23:06;23.23;;;11.63;;
27744;SDS011;61387;48.112;8.616;2023-02-16T07:25:32;28.67;;;13.20;;
27744;SDS011;61387;48.112;8.616;2023-02-16T07:27:58;25.23;;;12.10;;
27744;SDS011;61387;48.112;8.616;2023-02-16T07:30:24;25.80;;;13.17;;
27744;SDS011;61387;48.112;8.616;2023-02-16T07:32:49;26.92;;;13.77;;
27744;SDS011;61387;48.112;8.616;2023-02-16T07:35:15;24.67;;;12.40;;
27744;SDS011;61387;48.112;8.616;2023-02-16T07:37:41;28.37;;;14.37;;
27744;SDS011;61387;48.112;8.616;2023-02-16T07:40:07;24.20;;;13.17;;
27744;SDS011;61387;48.112;8.616;2023-02-16T07:42:33;24.67;;;14.03;;
27744;SDS011;61387;48.112;8.616;2023-02-16T07:44:59;27.73;;;13.93;;
27744;SDS011;61387;48.112;8.616;2023-02-16T07:47:25;30.73;;;13.87;;
27744;SDS011;61387;48.112;8.616;2023-02-16T07:49:51;27.83;;;13.10;;
27744;SDS011;61387;48.112;8.616;2023-02-16T07:52:17;26.40;;;13.93;;
27744;SDS011;61387;48.112;8.616;2023-02-16T07:54:43;26.73;;;13.23;;
27744;SDS011;61387;48.112;8.616;2023-02-16T07:57:08;30.50;;;15.73;;
27744;SDS011;61387;48.112;8.616;2023-02-16T07:59:34;33.50;;;16.93;;
27744;SDS011;61387;48.112;8.616;2023-02-16T08:02:00;34.17;;;16.13;;
27744;SDS011;61387;48.112;8.616;2023-02-16T08:04:26;27.93;;;15.40;;
27744;SDS011;61387;48.112;8.616;2023-02-16T08:06:52;28.13;;;13.83;;
27744;SDS011;61387;48.112;8.616;2023-02-16T08:09:18;28.50;;;15.20;;
27744;SDS011;61387;48.112;8.616;2023-02-16T08:11:45;33.73;;;16.53;;
27744;SDS011;61387;48.112;8.616;2023-02-16T08:14:10;29.93;;;16.73;;
27744;SDS011;61387;48.112;8.616;2023-02-16T08:16:36;34.87;;;17.90;;
27744;SDS011;61387;48.112;8.616;2023-02-16T08:19:03;35.77;;;17.60;;
27744;SDS011;61387;48.112;8.616;2023-02-16T08:21:30;32.87;;;18.13;;
27744;SDS011;61387;48.112;8.616;2023-02-16T08:24:01;26.57;;;15.60;;
27744;SDS011;61387;48.112;8.616;2023-02-16T08:26:32;25.87;;;13.87;;
27744;SDS011;61387;48.112;8.616;2023-02-16T08:29:01;26.70;;;14.07;;
27744;SDS011;61387;48.112;8.616;2023-02-16T08:31:27;28.03;;;14.13;;
27744;SDS011;61387;48.112;8.616;2023-02-16T08:33:55;27.13;;;14.17;;
27744;SDS011;61387;48.112;8.616;2023-02-16T08:36:23;29.13;;;14.60;;
27744;SDS011;61387;48.112;8.616;2023-02-16T08:38:53;29.80;;;14.37;;
27744;SDS011;61387;48.112;8.616;2023-02-16T08:41:20;27.40;;;14.43;;
27744;SDS011;61387;48.112;8.616;2023-02-16T08:43:48;25.43;;;14.33;;
27744;SDS011;61387;48.112;8.616;2023-02-16T08:46:15;28.27;;;15.27;;
27744;SDS011;61387;48.112;8.616;2023-02-16T08:48:41;24.47;;;13.37;;
27744;SDS011;61387;48.112;8.616;2023-02-16T08:51:12;25.00;;;14.43;;
27744;SDS011;61387;48.112;8.616;2023-02-16T08:53:42;23.53;;;13.73;;
27744;SDS011;61387;48.112;8.616;2023-02-16T08:56:08;24.63;;;13.87;;
27744;SDS011;61387;48.112;8.616;2023-02-16T08:58:35;25.87;;;14.30;;
27744;SDS011;61387;48.112;8.616;2023-02-16T09:01:05;28.33;;;15.57;;
27744;SDS011;61387;48.112;8.616;2023-02-16T09:03:32;30.73;;;17.33;;
27744;SDS011;61387;48.112;8.616;2023-02-16T09:05:59;32.97;;;17.37;;
27744;SDS011;61387;48.112;8.616;2023-02-16T09:08:26;31.80;;;16.17;;
27744;SDS011;61387;48.112;8.616;2023-02-16T09:10:52;29.17;;;16.87;;
27744;SDS011;61387;48.112;8.616;2023-02-16T09:13:18;29.67;;;17.63;;
27744;SDS011;61387;48.112;8.616;2023-02-16T09:15:44;28.23;;;16.30;;
27744;SDS011;61387;48.112;8.616;2023-02-16T09:18:11;31.67;;;17.60;;
27744;SDS011;61387;48.112;8.616;2023-02-16T09:20:38;32.43;;;17.40;;
27744;SDS011;61387;48.112;8.616;2023-02-16T09:23:06;25.93;;;15.73;;
27744;SDS011;61387;48.112;8.616;2023-02-16T09:25:36;26.33;;;13.70;;
27744;SDS011;61387;48.112;8.616;2023-02-16T09:28:03;24.87;;;13.83;;
27744;SDS011;61387;48.112;8.616;2023-02-16T09:30:29;23.27;;;13.40;;
27744;SDS011;61387;48.112;8.616;2023-02-16T09:32:57;20.73;;;13.17;;
27744;SDS011;61387;48.112;8.616;2023-02-16T09:35:24;26.00;;;12.70;;
27744;SDS011;61387;48.112;8.616;2023-02-16T09:37:50;23.77;;;13.70;;
27744;SDS011;61387;48.112;8.616;2023-02-16T09:40:16;25.67;;;15.27;;
27744;SDS011;61387;48.112;8.616;2023-02-16T09:42:55;22.57;;;12.63;;
27744;SDS011;61387;48.112;8.616;2023-02-16T09:45:47;26.50;;;12.13;;
27744;SDS011;61387;48.112;8.616;2023-02-16T09:48:21;19.63;;;11.30;;
27744;SDS011;61387;48.112;8.616;2023-02-16T09:51:19;19.73;;;11.30;;
27744;SDS011;61387;48.112;8.616;2023-02-16T09:53:48;17.10;;;10.60;;
27744;SDS011;61387;48.112;8.616;2023-02-16T09:56:37;15.27;;;8.67;;
27744;SDS011;61387;48.112;8.616;2023-02-16T10:01:55;14.70;;;7.30;;
27744;SDS011;61387;48.112;8.616;2023-02-16T10:05:02;12.03;;;6.53;;
27744;SDS011;61387;48.112;8.616;2023-02-16T10:08:05;13.57;;;6.27;;
27744;SDS011;61387;48.112;8.616;2023-02-16T10:10:43;11.93;;;6.43;;
27744;SDS011;61387;48.112;8.616;2023-02-16T10:15:39;14.90;;;7.37;;
27744;SDS011;61387;48.112;8.616;2023-02-16T10:18:28;12.77;;;6.47;;
27744;SDS011;61387;48.112;8.616;2023-02-16T10:21:00;12.27;;;6.17;;
27744;SDS011;61387;48.112;8.616;2023-02-16T10:26:36;11.60;;;6.20;;
27744;SDS011;61387;48.112;8.616;2023-02-16T10:29:06;15.57;;;7.50;;
27744;SDS011;61387;48.112;8.616;2023-02-16T10:42:29;18.13;;;7.67;;
27744;SDS011;61387;48.112;8.616;2023-02-16T10:45:26;17.73;;;7.33;;
27744;SDS011;61387;48.112;8.616;2023-02-16T10:48:08;19.97;;;9.87;;
27744;SDS011;61387;48.112;8.616;2023-02-16T10:50:41;16.47;;;9.00;;
27744;SDS011;61387;48.112;8.616;2023-02-16T10:54:00;15.13;;;7.80;;
27744;SDS011;61387;48.112;8.616;2023-02-16T10:56:34;11.23;;;5.87;;
27744;SDS011;61387;48.112;8.616;2023-02-16T10:59:06;12.77;;;5.93;;
27744;SDS011;61387;48.112;8.616;2023-02-16T11:01:49;13.53;;;6.00;;
27744;SDS011;61387;48.112;8.616;2023-02-16T11:07:00;9.43;;;5.13;;
27744;SDS011;61387;48.112;8.616;2023-02-16T11:09:27;11.33;;;5.50;;
27744;SDS011;61387;48.112;8.616;2023-02-16T11:11:53;11.13;;;5.80;;
27744;SDS011;61387;48.112;8.616;2023-02-16T11:14:20;22.10;;;7.33;;
27744;SDS011;61387;48.112;8.616;2023-02-16T11:16:48;15.57;;;7.00;;
27744;SDS011;61387;48.112;8.616;2023-02-16T11:19:27;26.07;;;7.37;;
27744;SDS011;61387;48.112;8.616;2023-02-16T11:21:56;11.93;;;6.03;;
27744;SDS011;61387;48.112;8.616;2023-02-16T11:24:27;20.33;;;7.13;;
27744;SDS011;61387;48.112;8.616;2023-02-16T11:27:02;15.27;;;6.97;;
27744;SDS011;61387;48.112;8.616;2023-02-16T11:29:30;14.93;;;7.33;;
27744;SDS011;61387;48.112;8.616;2023-02-16T11:31:56;14.43;;;7.20;;
27744;SDS011;61387;48.112;8.616;2023-02-16T11:36:49;11.53;;;7.27;;
27744;SDS011;61387;48.112;8.616;2023-02-16T11:39:25;14.77;;;8.17;;
27744;SDS011;61387;48.112;8.616;2023-02-16T11:46:53;12.90;;;7.80;;
27744;SDS011;61387;48.112;8.616;2023-02-16T11:51:47;15.13;;;7.50;;
27744;SDS011;61387;48.112;8.616;2023-02-16T11:54:18;15.75;;;6.82;;
27744;SDS011;61387;48.112;8.616;2023-02-16T11:56:59;15.03;;;6.97;;
27744;SDS011;61387;48.112;8.616;2023-02-16T11:59:34;15.07;;;6.70;;
27744;SDS011;61387;48.112;8.616;2023-02-16T12:13:07;11.40;;;5.97;;
27744;SDS011;61387;48.112;8.616;2023-02-16T12:23:40;23.63;;;7.00;;
27744;SDS011;61387;48.112;8.616;2023-02-16T12:29:11;11.87;;;6.50;;
27744;SDS011;61387;48.112;8.616;2023-02-16T12:37:31;12.20;;;6.33;;
27744;SDS011;61387;48.112;8.616;2023-02-16T12:45:15;12.63;;;6.83;;
27744;SDS011;61387;48.112;8.616;2023-02-16T12:50:31;14.03;;;7.40;;
27744;SDS011;61387;48.112;8.616;2023-02-16T12:53:02;13.83;;;7.67;;
27744;SDS011;61387;48.112;8.616;2023-02-16T12:55:43;14.10;;;7.50;;
27744;SDS011;61387;48.112;8.616;2023-02-16T13:00:54;20.30;;;8.73;;
27744;SDS011;61387;48.112;8.616;2023-02-16T13:03:31;19.50;;;8.83;;
27744;SDS011;61387;48.112;8.616;2023-02-16T13:08:47;13.47;;;7.90;;
27744;SDS011;61387;48.112;8.616;2023-02-16T13:11:22;24.97;;;11.20;;
27744;SDS011;61387;48.112;8.616;2023-02-16T13:14:15;15.30;;;8.57;;
27744;SDS011;61387;48.112;8.616;2023-02-16T13:19:33;13.83;;;8.27;;
27744;SDS011;61387;48.112;8.616;2023-02-16T13:22:12;16.00;;;8.90;;
27744;SDS011;61387;48.112;8.616;2023-02-16T13:24:59;15.20;;;8.90;;
27744;SDS011;61387;48.112;8.616;2023-02-16T13:27:53;15.23;;;8.57;;
27744;SDS011;61387;48.112;8.616;2023-02-16T13:30:46;25.77;;;9.50;;
27744;SDS011;61387;48.112;8.616;2023-02-16T13:36:03;17.53;;;8.73;;
27744;SDS011;61387;48.112;8.616;2023-02-16T13:39:16;18.20;;;9.00;;
27744;SDS011;61387;48.112;8.616;2023-02-16T13:45:00;16.63;;;9.63;;
27744;SDS011;61387;48.112;8.616;2023-02-16T13:47:36;17.20;;;9.50;;
27744;SDS011;61387;48.112;8.616;2023-02-16T13:50:04;20.07;;;10.00;;
27744;SDS011;61387;48.112;8.616;2023-02-16T13:52:33;20.77;;;10.13;;
27744;SDS011;61387;48.112;8.616;2023-02-16T13:55:45;20.97;;;9.70;;
27744;SDS011;61387;48.112;8.616;2023-02-16T14:00:36;18.67;;;9.53;;
27744;SDS011;61387;48.112;8.616;2023-02-16T14:05:44;16.90;;;8.27;;
27744;SDS011;61387;48.112;8.616;2023-02-16T14:08:16;18.13;;;8.60;;
27744;SDS011;61387;48.112;8.616;2023-02-16T14:15:55;16.20;;;10.17;;
27744;SDS011;61387;48.112;8.616;2023-02-16T14:18:29;23.10;;;10.73;;
27744;SDS011;61387;48.112;8.616;2023-02-16T14:21:00;26.23;;;12.37;;
27744;SDS011;61387;48.112;8.616;2023-02-16T14:23:28;20.80;;;10.20;;
27744;SDS011;61387;48.112;8.616;2023-02-16T14:25:59;17.30;;;9.30;;
27744;SDS011;61387;48.112;8.616;2023-02-16T14:31:02;15.90;;;9.50;;
27744;SDS011;61387;48.112;8.616;2023-02-16T14:36:27;23.50;;;10.37;;
27744;SDS011;61387;48.112;8.616;2023-02-16T14:38:54;24.80;;;10.70;;
27744;SDS011;61387;48.112;8.616;2023-02-16T14:41:25;21.03;;;10.27;;
27744;SDS011;61387;48.112;8.616;2023-02-16T14:46:44;20.73;;;11.20;;
27744;SDS011;61387;48.112;8.616;2023-02-16T14:55:23;25.13;;;13.80;;
27744;SDS011;61387;48.112;8.616;2023-02-16T15:03:13;34.60;;;16.67;;
27744;SDS011;61387;48.112;8.616;2023-02-16T15:05:45;22.83;;;12.77;;
27744;SDS011;61387;48.112;8.616;2023-02-16T15:08:23;20.50;;;10.77;;
27744;SDS011;61387;48.112;8.616;2023-02-16T15:10:59;16.50;;;9.30;;
27744;SDS011;61387;48.112;8.616;2023-02-16T15:13:30;18.93;;;9.87;;
27744;SDS011;61387;48.112;8.616;2023-02-16T15:16:01;19.00;;;11.10;;
27744;SDS011;61387;48.112;8.616;2023-02-16T15:18:31;20.13;;;10.17;;
27744;SDS011;61387;48.112;8.616;2023-02-16T15:21:01;16.53;;;8.90;;
27744;SDS011;61387;48.112;8.616;2023-02-16T15:23:28;17.47;;;9.17;;
27744;SDS011;61387;48.112;8.616;2023-02-16T15:26:02;19.57;;;9.87;;
27744;SDS011;61387;48.112;8.616;2023-02-16T15:28:32;20.53;;;9.77;;
27744;SDS011;61387;48.112;8.616;2023-02-16T15:31:01;18.70;;;8.53;;
27744;SDS011;61387;48.112;8.616;2023-02-16T15:33:40;12.40;;;7.27;;
27744;SDS011;61387;48.112;8.616;2023-02-16T15:36:10;14.13;;;6.80;;
27744;SDS011;61387;48.112;8.616;2023-02-16T15:38:39;13.00;;;6.07;;
27744;SDS011;61387;48.112;8.616;2023-02-16T15:41:24;13.53;;;7.90;;
27744;SDS011;61387;48.112;8.616;2023-02-16T15:43:54;11.67;;;6.80;;
27744;SDS011;61387;48.112;8.616;2023-02-16T15:48:57;13.93;;;6.83;;
27744;SDS011;61387;48.112;8.616;2023-02-16T15:51:31;16.73;;;7.97;;
27744;SDS011;61387;48.112;8.616;2023-02-16T15:54:32;10.63;;;5.90;;
27744;SDS011;61387;48.112;8.616;2023-02-16T15:59:55;13.53;;;6.83;;
27744;SDS011;61387;48.112;8.616;2023-02-16T16:02:24;13.63;;;7.93;;
27744;SDS011;61387;48.112;8.616;2023-02-16T16:04:59;11.47;;;6.43;;
27744;SDS011;61387;48.112;8.616;2023-02-16T16:07:31;12.40;;;6.20;;
27744;SDS011;61387;48.112;8.616;2023-02-16T16:09:59;15.37;;;5.90;;
27744;SDS011;61387;48.112;8.616;2023-02-16T16:12:26;86.27;;;46.00;;
27744;SDS011;61387;48.112;8.616;2023-02-16T16:14:54;15.20;;;8.47;;
27744;SDS011;61387;48.112;8.616;2023-02-16T16:17:29;20.50;;;7.57;;
27744;SDS011;61387;48.112;8.616;2023-02-16T16:19:57;13.17;;;6.90;;
27744;SDS011;61387;48.112;8.616;2023-02-16T16:22:41;16.27;;;7.77;;
27744;SDS011;61387;48.112;8.616;2023-02-16T16:28:14;17.77;;;9.23;;
27744;SDS011;61387;48.112;8.616;2023-02-16T16:31:15;16.10;;;9.60;;
27744;SDS011;61387;48.112;8.616;2023-02-16T16:34:03;15.17;;;8.67;;
27744;SDS011;61387;48.112;8.616;2023-02-16T16:36:37;23.97;;;9.60;;
27744;SDS011;61387;48.112;8.616;2023-02-16T16:39:19;16.30;;;8.73;;
27744;SDS011;61387;48.112;8.616;2023-02-16T16:42:06;16.53;;;9.13;;
27744;SDS011;61387;48.112;8.616;2023-02-16T16:44:41;22.13;;;9.60;;
27744;SDS011;61387;48.112;8.616;2023-02-16T16:47:23;14.90;;;7.50;;
27744;SDS011;61387;48.112;8.616;2023-02-16T16:52:51;16.43;;;8.13;;
27744;SDS011;61387;48.112;8.616;2023-02-16T16:55:20;15.47;;;8.47;;
27744;SDS011;61387;48.112;8.616;2023-02-16T16:57:53;13.93;;;7.53;;
27744;SDS011;61387;48.112;8.616;2023-02-16T17:00:20;14.50;;;7.77;;
27744;SDS011;61387;48.112;8.616;2023-02-16T17:02:48;18.70;;;7.90;;
27744;SDS011;61387;48.112;8.616;2023-02-16T17:05:14;14.43;;;7.73;;
27744;SDS011;61387;48.112;8.616;2023-02-16T17:07:40;18.63;;;7.90;;
27744;SDS011;61387;48.112;8.616;2023-02-16T17:10:06;12.77;;;7.33;;
27744;SDS011;61387;48.112;8.616;2023-02-16T17:12:33;15.63;;;7.73;;
27744;SDS011;61387;48.112;8.616;2023-02-16T17:14:59;14.50;;;7.47;;